createdAt,value
2022-09-14T00:00:28.001Z,12.03
2022-09-14T00:03:12.049Z,11.98
2022-09-14T00:05:43.864Z,11.93
2022-09-14T00:08:18.511Z,11.94
2022-09-14T00:10:49.702Z,11.94
2022-09-14T00:13:21.433Z,11.91
2022-09-14T00:16:02.746Z,11.90
2022-09-14T00:18:33.740Z,11.84
2022-09-14T00:21:12.704Z,11.87
2022-09-14T00:23:43.292Z,11.86
2022-09-14T00:26:15.346Z,11.84
2022-09-14T00:28:44.437Z,11.83
2022-09-14T00:31:16.092Z,11.79
2022-09-14T00:33:50.725Z,11.77
2022-09-14T00:36:24.045Z,11.77
2022-09-14T00:39:02.055Z,11.74
2022-09-14T00:45:19.695Z,11.74
2022-09-14T00:48:06.930Z,11.74
2022-09-14T00:56:41.400Z,11.66
2022-09-14T01:02:16.306Z,11.56
2022-09-14T01:04:51.524Z,11.53
2022-09-14T01:07:28.519Z,11.46
2022-09-14T01:10:05.443Z,11.40
2022-09-14T01:12:42.526Z,11.40
2022-09-14T01:15:21.850Z,11.52
2022-09-14T01:17:59.711Z,11.60
2022-09-14T01:20:41.653Z,11.60
2022-09-14T01:23:27.908Z,11.67
2022-09-14T01:26:43.793Z,11.74
2022-09-14T01:29:52.727Z,11.80
2022-09-14T01:33:07.071Z,11.84
2022-09-14T01:35:40.113Z,11.83
2022-09-14T01:38:12.437Z,11.83
2022-09-14T01:40:59.438Z,11.84
2022-09-14T01:43:36.806Z,11.80
2022-09-14T01:49:14.465Z,11.77
2022-09-14T01:52:12.852Z,11.80
2022-09-14T01:54:47.642Z,11.80
2022-09-14T01:57:23.938Z,11.77
2022-09-14T01:59:55.977Z,11.76
2022-09-14T02:02:33.159Z,11.73
2022-09-14T02:05:14.864Z,11.70
2022-09-14T02:07:44.339Z,11.64
2022-09-14T02:10:16.880Z,11.59
2022-09-14T02:12:45.617Z,11.53
2022-09-14T02:15:28.834Z,11.49
2022-09-14T02:18:15.832Z,11.46
2022-09-14T02:21:07.582Z,11.39
2022-09-14T02:23:37.638Z,11.34
2022-09-14T02:26:45.050Z,11.24
2022-09-14T02:29:16.874Z,11.24
2022-09-14T02:32:05.128Z,11.19
2022-09-14T02:34:54.281Z,11.14
2022-09-14T02:37:34.194Z,11.08
2022-09-14T02:43:39.685Z,11.04
2022-09-14T02:46:16.788Z,11.04
2022-09-14T02:49:01.337Z,11.07
2022-09-14T02:51:40.051Z,11.08
2022-09-14T03:00:04.017Z,11.14
2022-09-14T03:02:38.865Z,11.15
2022-09-14T03:05:25.548Z,11.19
2022-09-14T03:08:17.346Z,11.16
2022-09-14T03:10:53.224Z,11.19
2022-09-14T03:13:29.469Z,11.24
2022-09-14T03:16:44.436Z,11.32
2022-09-14T03:25:42.753Z,11.29
2022-09-14T03:31:31.751Z,11.24
2022-09-14T03:47:14.493Z,10.98
2022-09-14T03:56:22.170Z,10.89
2022-09-14T04:05:26.622Z,10.85
2022-09-14T04:07:57.654Z,10.83
2022-09-14T04:13:45.069Z,10.83
2022-09-14T04:16:38.377Z,10.81
2022-09-14T04:19:44.617Z,10.77
2022-09-14T04:26:12.843Z,10.78
2022-09-14T04:28:41.184Z,10.77
2022-09-14T04:31:13.497Z,10.77
2022-09-14T04:33:43.055Z,10.81
2022-09-14T04:37:01.595Z,10.78
2022-09-14T04:39:58.557Z,10.80
2022-09-14T04:42:30.554Z,10.74
2022-09-14T04:45:15.382Z,10.70
2022-09-14T04:47:53.820Z,10.66
2022-09-14T04:50:24.967Z,10.68
2022-09-14T04:52:53.468Z,10.66
2022-09-14T04:55:24.388Z,10.70
2022-09-14T04:57:52.525Z,10.67
2022-09-14T05:00:30.921Z,10.71
2022-09-14T05:03:01.671Z,10.78
2022-09-14T05:05:29.894Z,10.78
2022-09-14T05:07:58.141Z,10.85
2022-09-14T05:10:29.766Z,10.89
2022-09-14T05:12:57.955Z,10.97
2022-09-14T05:15:26.280Z,11.02
2022-09-14T05:17:54.218Z,11.12
2022-09-14T05:20:22.504Z,11.21
2022-09-14T05:22:51.257Z,11.26
2022-09-14T05:25:19.567Z,11.32
2022-09-14T05:27:49.437Z,11.42
2022-09-14T05:30:17.791Z,11.46
2022-09-14T05:32:46.003Z,11.52
2022-09-14T05:35:15.466Z,11.59
2022-09-14T05:37:43.517Z,11.67
2022-09-14T05:40:13.380Z,11.76
2022-09-14T05:42:41.784Z,11.84
2022-09-14T05:45:12.087Z,11.91
2022-09-14T05:47:40.160Z,11.97
2022-09-14T05:50:09.441Z,12.01
2022-09-14T05:52:38.487Z,12.10
2022-09-14T05:55:07.127Z,12.14
2022-09-14T05:57:35.256Z,12.22
2022-09-14T06:00:04.868Z,12.28
2022-09-14T06:02:34.595Z,12.35
2022-09-14T06:05:02.633Z,12.42
2022-09-14T06:07:30.969Z,12.51
2022-09-14T06:09:58.967Z,12.61
2022-09-14T06:12:27.644Z,12.68
2022-09-14T06:14:55.613Z,12.77
2022-09-14T06:17:23.760Z,12.80
2022-09-14T06:19:53.149Z,12.90
2022-09-14T06:22:21.413Z,13.01
2022-09-14T06:24:49.497Z,13.03
2022-09-14T06:27:17.634Z,13.11
2022-09-14T06:29:45.600Z,13.20
2022-09-14T06:32:13.578Z,13.24
2022-09-14T06:34:41.842Z,13.34
2022-09-14T06:37:11.403Z,13.44
2022-09-14T06:39:39.556Z,13.63
2022-09-14T06:42:07.818Z,13.85
2022-09-14T06:44:35.942Z,14.05
2022-09-14T06:47:04.035Z,14.23
2022-09-14T06:49:32.292Z,14.44
2022-09-14T06:52:00.993Z,14.51
2022-09-14T06:54:30.430Z,14.56
2022-09-14T06:56:58.808Z,14.60
2022-09-14T06:59:27.172Z,14.72
2022-09-14T07:01:55.178Z,14.78
2022-09-14T07:04:24.988Z,14.88
2022-09-14T07:06:53.160Z,14.88
2022-09-14T07:09:22.469Z,14.89
2022-09-14T07:11:51.875Z,14.86
2022-09-14T07:14:21.138Z,14.88
2022-09-14T07:16:49.495Z,14.89
2022-09-14T07:19:17.698Z,14.99
2022-09-14T07:21:45.814Z,15.07
2022-09-14T07:24:14.821Z,15.18
2022-09-14T07:26:43.728Z,15.30
2022-09-14T07:29:16.067Z,15.42
2022-09-14T07:31:45.050Z,15.50
2022-09-14T07:34:13.088Z,15.58
2022-09-14T07:36:44.629Z,15.74
2022-09-14T07:39:14.236Z,16.14
2022-09-14T07:41:43.341Z,16.66
2022-09-14T07:44:16.419Z,17.21
2022-09-14T07:46:45.586Z,17.62
2022-09-14T07:49:15.640Z,17.90
2022-09-14T07:51:44.088Z,18.01
2022-09-14T07:54:14.056Z,18.11
2022-09-14T07:56:43.445Z,18.32
2022-09-14T07:59:34.568Z,18.55
2022-09-14T08:02:02.385Z,18.78
2022-09-14T08:04:30.613Z,18.99
2022-09-14T08:06:59.087Z,19.21
2022-09-14T08:09:27.816Z,19.50
2022-09-14T08:11:57.206Z,19.72
2022-09-14T08:14:25.408Z,19.96
2022-09-14T08:16:53.853Z,20.26
2022-09-14T08:19:23.783Z,20.54
2022-09-14T08:21:52.318Z,20.77
2022-09-14T08:24:22.444Z,21.01
2022-09-14T08:26:50.866Z,21.21
2022-09-14T08:29:20.217Z,21.50
2022-09-14T08:31:51.915Z,21.70
2022-09-14T08:34:21.073Z,21.87
2022-09-14T08:36:50.893Z,21.98
2022-09-14T08:39:19.791Z,22.16
2022-09-14T08:41:53.770Z,22.35
2022-09-14T08:44:25.855Z,22.52
2022-09-14T08:46:59.230Z,22.56
2022-09-14T08:49:37.802Z,22.68
2022-09-14T08:52:13.588Z,22.75
2022-09-14T08:54:44.908Z,22.86
2022-09-14T08:57:20.451Z,22.86
2022-09-14T08:59:53.822Z,22.76
2022-09-14T09:02:29.917Z,22.49
2022-09-14T09:05:02.888Z,22.24
2022-09-14T09:07:35.887Z,22.10
2022-09-14T09:10:05.661Z,21.98
2022-09-14T09:12:38.302Z,21.91
2022-09-14T09:15:17.095Z,21.79
2022-09-14T09:17:47.290Z,21.65
2022-09-14T09:20:19.396Z,21.50
2022-09-14T09:25:56.610Z,21.29
2022-09-14T09:28:26.758Z,21.25
2022-09-14T09:30:55.755Z,21.23
2022-09-14T09:33:25.898Z,21.25
2022-09-14T09:35:55.584Z,21.28
2022-09-14T09:38:28.158Z,21.36
2022-09-14T09:40:58.747Z,21.43
2022-09-14T09:43:45.782Z,21.39
2022-09-14T09:46:16.628Z,21.26
2022-09-14T09:48:47.167Z,21.21
2022-09-14T09:51:20.888Z,21.19
2022-09-14T09:53:55.889Z,21.16
2022-09-14T09:56:37.921Z,21.22
2022-09-14T09:59:24.361Z,21.36
2022-09-14T10:01:55.773Z,21.36
2022-09-14T10:04:28.152Z,21.28
2022-09-14T10:06:59.194Z,21.15
2022-09-14T10:09:29.089Z,21.12
2022-09-14T10:11:59.564Z,21.12
2022-09-14T10:14:31.398Z,21.16
2022-09-14T10:17:06.598Z,21.25
2022-09-14T10:19:35.131Z,21.42
2022-09-14T10:22:24.271Z,21.42
2022-09-14T10:25:22.205Z,21.47
2022-09-14T10:27:59.104Z,21.74
2022-09-14T10:30:28.901Z,21.90
2022-09-14T10:33:00.546Z,21.91
2022-09-14T10:35:35.482Z,21.74
2022-09-14T10:38:12.190Z,21.76
2022-09-14T10:40:44.827Z,21.79
2022-09-14T10:43:17.204Z,21.80
2022-09-14T10:45:50.853Z,21.94
2022-09-14T10:48:30.976Z,22.05
2022-09-14T10:51:07.290Z,22.16
2022-09-14T10:53:44.541Z,22.28
2022-09-14T10:56:19.024Z,22.45
2022-09-14T10:59:04.762Z,22.55
2022-09-14T11:01:44.764Z,22.64
2022-09-14T11:04:24.414Z,22.80
2022-09-14T11:06:56.592Z,22.87
2022-09-14T11:09:26.354Z,22.82
2022-09-14T11:12:04.845Z,22.62
2022-09-14T11:14:42.509Z,22.46
2022-09-14T11:17:22.986Z,22.35
2022-09-14T11:19:55.682Z,22.18
2022-09-14T11:22:32.220Z,22.17
2022-09-14T11:25:04.998Z,22.31
2022-09-14T11:27:39.058Z,22.41
2022-09-14T11:30:13.102Z,22.31
2022-09-14T11:32:44.727Z,22.17
2022-09-14T11:35:16.311Z,22.18
2022-09-14T11:37:48.222Z,22.38
2022-09-14T11:40:20.345Z,22.66
2022-09-14T11:42:57.147Z,22.87
2022-09-14T11:45:29.344Z,23.06
2022-09-14T11:48:03.232Z,23.10
2022-09-14T11:50:33.338Z,23.10
2022-09-14T11:53:05.428Z,22.96
2022-09-14T11:55:33.753Z,22.71
2022-09-14T11:58:07.093Z,22.29
2022-09-14T12:01:01.698Z,22.20
2022-09-14T12:04:00.361Z,22.00
2022-09-14T12:06:51.317Z,21.94
2022-09-14T12:09:43.644Z,21.90
2022-09-14T12:12:32.989Z,21.94
2022-09-14T12:15:03.663Z,21.96
2022-09-14T12:17:40.038Z,22.01
2022-09-14T12:20:30.594Z,22.07
2022-09-14T12:23:20.824Z,22.08
2022-09-14T12:26:13.428Z,22.05
2022-09-14T12:28:48.084Z,21.97
2022-09-14T12:31:36.061Z,21.87
2022-09-14T12:34:16.330Z,21.79
2022-09-14T12:37:08.672Z,21.59
2022-09-14T12:39:39.365Z,21.50
2022-09-14T12:42:28.878Z,21.47
2022-09-14T12:44:57.123Z,21.47
2022-09-14T12:47:52.404Z,21.47
2022-09-14T12:50:23.021Z,21.40
2022-09-14T12:53:12.444Z,21.49
2022-09-14T12:55:46.231Z,21.42
2022-09-14T12:58:24.439Z,21.32
2022-09-14T13:00:59.749Z,21.15
2022-09-14T13:03:49.697Z,20.96
2022-09-14T13:06:18.736Z,20.81
2022-09-14T13:08:48.800Z,20.53
2022-09-14T13:11:22.546Z,20.33
2022-09-14T13:13:51.073Z,20.37
2022-09-14T13:16:26.199Z,20.45
2022-09-14T13:19:06.437Z,20.55
2022-09-14T13:21:37.059Z,20.61
2022-09-14T13:24:19.335Z,20.64
2022-09-14T13:26:47.415Z,20.65
2022-09-14T13:29:15.951Z,20.67
2022-09-14T13:31:46.216Z,20.70
2022-09-14T13:34:22.022Z,20.60
2022-09-14T13:36:50.515Z,20.41
2022-09-14T13:39:25.775Z,20.43
2022-09-14T13:41:54.551Z,20.43
2022-09-14T13:44:25.528Z,20.39
2022-09-14T13:46:54.130Z,20.39
2022-09-14T13:49:24.060Z,20.32
2022-09-14T13:51:52.242Z,20.23
2022-09-14T13:54:29.601Z,20.19
2022-09-14T13:57:14.194Z,20.13
2022-09-14T14:00:05.456Z,19.99
2022-09-14T14:02:36.781Z,19.87
2022-09-14T14:05:07.671Z,19.83
2022-09-14T14:07:36.508Z,19.83
2022-09-14T14:10:04.867Z,19.78
2022-09-14T14:12:36.897Z,19.76
2022-09-14T14:15:09.411Z,19.76
2022-09-14T14:17:39.447Z,19.82
2022-09-14T14:20:31.128Z,19.87
2022-09-14T14:23:06.938Z,19.90
2022-09-14T14:25:40.989Z,19.87
2022-09-14T14:28:17.918Z,19.86
2022-09-14T14:30:50.558Z,19.82
2022-09-14T14:33:20.025Z,19.69
2022-09-14T14:35:51.947Z,19.61
2022-09-14T14:38:20.503Z,19.45
2022-09-14T14:40:49.001Z,19.41
2022-09-14T14:43:19.917Z,19.30
2022-09-14T14:45:49.136Z,19.17
2022-09-14T14:48:18.325Z,19.08
2022-09-14T14:50:47.498Z,19.02
2022-09-14T14:53:17.631Z,18.87
2022-09-14T14:55:46.304Z,18.75
2022-09-14T14:58:17.350Z,18.69
2022-09-14T15:00:49.364Z,18.65
2022-09-14T15:03:22.001Z,18.61
2022-09-14T15:05:50.630Z,18.56
2022-09-14T15:08:23.219Z,18.47
2022-09-14T15:10:57.126Z,18.42
2022-09-14T15:13:26.772Z,18.31
2022-09-14T15:15:55.276Z,18.31
2022-09-14T15:18:23.468Z,18.25
2022-09-14T15:20:54.999Z,18.24
2022-09-14T15:23:25.951Z,18.24
2022-09-14T15:25:54.556Z,18.21
2022-09-14T15:28:23.253Z,18.17
2022-09-14T15:30:51.923Z,18.13
2022-09-14T15:33:21.693Z,18.10
2022-09-14T15:35:56.116Z,18.08
2022-09-14T15:38:25.707Z,18.03
2022-09-14T15:40:54.007Z,17.96
2022-09-14T15:43:22.380Z,17.94
2022-09-14T15:45:50.589Z,17.94
2022-09-14T15:48:24.890Z,17.93
2022-09-14T15:50:54.179Z,17.91
2022-09-14T15:53:22.209Z,17.87
2022-09-14T15:55:52.830Z,17.86
2022-09-14T15:58:21.327Z,17.86
2022-09-14T16:00:49.962Z,17.79
2022-09-14T16:03:18.680Z,17.74
2022-09-14T16:05:47.137Z,17.70
2022-09-14T16:08:16.316Z,17.67
2022-09-14T16:10:44.394Z,17.66
2022-09-14T16:13:13.787Z,17.65
2022-09-14T16:15:42.511Z,17.63
2022-09-14T16:18:10.634Z,17.62
2022-09-14T16:20:39.129Z,17.56
2022-09-14T16:23:07.724Z,17.49
2022-09-14T16:25:40.984Z,17.48
2022-09-14T16:28:09.150Z,17.42
2022-09-14T16:30:38.556Z,17.36
2022-09-14T16:33:07.940Z,17.29
2022-09-14T16:35:36.123Z,17.29
2022-09-14T16:38:05.327Z,17.24
2022-09-14T16:40:34.158Z,17.15
2022-09-14T16:43:02.467Z,17.18
2022-09-14T16:45:30.686Z,17.11
2022-09-14T16:48:00.211Z,17.08
2022-09-14T16:50:28.482Z,17.07
2022-09-14T16:52:56.439Z,17.05
2022-09-14T16:55:24.622Z,16.97
2022-09-14T16:57:53.182Z,16.92
2022-09-14T17:00:21.460Z,16.90
2022-09-14T17:02:53.310Z,16.85
2022-09-14T17:05:26.508Z,16.80
2022-09-14T17:07:59.267Z,16.74
2022-09-14T17:10:27.433Z,16.69
2022-09-14T17:12:55.984Z,16.64
2022-09-14T17:15:24.038Z,16.60
2022-09-14T17:17:52.447Z,16.53
2022-09-14T17:20:20.698Z,16.49
2022-09-14T17:22:50.337Z,16.44
2022-09-14T17:25:18.821Z,16.37
2022-09-14T17:27:47.197Z,16.32
2022-09-14T17:30:15.935Z,16.26
2022-09-14T17:32:44.131Z,16.23
2022-09-14T17:35:12.159Z,16.19
2022-09-14T17:37:40.559Z,16.16
2022-09-14T17:40:11.335Z,16.12
2022-09-14T17:42:39.776Z,16.08
2022-09-14T17:45:10.471Z,16.06
2022-09-14T17:47:38.704Z,16.04
2022-09-14T17:50:09.834Z,16.06
2022-09-14T17:52:39.598Z,16.06
2022-09-14T17:55:09.660Z,16.04
2022-09-14T17:57:40.133Z,16.05
2022-09-14T18:00:10.343Z,16.05
2022-09-14T18:02:38.719Z,16.06
2022-09-14T18:05:07.740Z,16.04
2022-09-14T18:07:38.249Z,16.00
2022-09-14T18:10:08.103Z,15.98
2022-09-14T18:12:39.857Z,15.97
2022-09-14T18:15:15.432Z,15.92
2022-09-14T18:17:45.934Z,15.92
2022-09-14T18:20:15.587Z,15.88
2022-09-14T18:22:44.028Z,15.85
2022-09-14T18:25:15.250Z,15.84
2022-09-14T18:27:43.562Z,15.82
2022-09-14T18:30:14.659Z,15.78
2022-09-14T18:32:42.728Z,15.75
2022-09-14T18:35:13.034Z,15.74
2022-09-14T18:37:43.526Z,15.71
2022-09-14T18:40:12.037Z,15.73
2022-09-14T18:42:40.543Z,15.70
2022-09-14T18:45:10.116Z,15.70
2022-09-14T18:47:40.344Z,15.71
2022-09-14T18:50:09.310Z,15.68
2022-09-14T18:52:37.791Z,15.71
2022-09-14T18:55:06.877Z,15.68
2022-09-14T18:57:35.428Z,15.68
2022-09-14T19:00:05.309Z,15.65
2022-09-14T19:02:33.434Z,15.64
2022-09-14T19:05:05.690Z,15.64
2022-09-14T19:07:36.809Z,15.63
2022-09-14T19:10:10.912Z,15.57
2022-09-14T19:12:40.715Z,15.56
2022-09-14T19:15:09.731Z,15.47
2022-09-14T19:17:38.165Z,15.49
2022-09-14T19:20:09.214Z,15.46
2022-09-14T19:22:38.023Z,15.43
2022-09-14T19:25:10.413Z,15.40
2022-09-14T19:27:38.858Z,15.36
2022-09-14T19:30:11.192Z,15.36
2022-09-14T19:32:39.157Z,15.33
2022-09-14T19:35:09.521Z,15.27
2022-09-14T19:37:39.678Z,15.22
2022-09-14T19:40:09.850Z,15.18
2022-09-14T19:42:39.524Z,15.13
2022-09-14T19:45:09.183Z,15.07
2022-09-14T19:47:37.778Z,15.03
2022-09-14T19:50:07.113Z,15.00
2022-09-14T19:52:36.620Z,14.96
2022-09-14T19:55:09.002Z,14.95
2022-09-14T19:57:38.446Z,14.89
2022-09-14T20:00:15.154Z,14.86
2022-09-14T20:02:46.770Z,14.82
2022-09-14T20:05:15.972Z,14.78
2022-09-14T20:07:47.729Z,14.72
2022-09-14T20:10:18.220Z,14.69
2022-09-14T20:12:47.223Z,14.64
2022-09-14T20:15:15.430Z,14.61
2022-09-14T20:17:43.825Z,14.57
2022-09-14T20:20:15.757Z,14.57
2022-09-14T20:22:46.385Z,14.48
2022-09-14T20:25:16.940Z,14.44
2022-09-14T20:27:46.693Z,14.40
2022-09-14T20:30:18.404Z,14.36
2022-09-14T20:32:47.562Z,14.28
2022-09-14T20:35:15.732Z,14.20
2022-09-14T20:37:45.215Z,14.19
2022-09-14T20:40:14.460Z,14.16
2022-09-14T20:42:44.292Z,14.10
2022-09-14T20:45:12.601Z,14.10
2022-09-14T20:47:40.897Z,14.05
2022-09-14T20:50:09.563Z,14.00
2022-09-14T20:52:37.874Z,14.00
2022-09-14T20:55:10.526Z,13.99
2022-09-14T20:57:42.766Z,13.96
2022-09-14T21:00:12.672Z,13.95
2022-09-14T21:02:40.946Z,13.92
2022-09-14T21:05:10.460Z,13.88
2022-09-14T21:07:38.613Z,13.85
2022-09-14T21:10:09.877Z,13.83
2022-09-14T21:12:37.982Z,13.82
2022-09-14T21:15:07.351Z,13.78
2022-09-14T21:17:36.322Z,13.81
2022-09-14T21:20:05.715Z,13.76
2022-09-14T21:22:35.837Z,13.73
2022-09-14T21:25:06.663Z,13.69
2022-09-14T21:27:36.345Z,13.68
2022-09-14T21:30:05.028Z,13.63
2022-09-14T21:32:33.379Z,13.55
2022-09-14T21:35:04.416Z,13.55
2022-09-14T21:37:32.660Z,13.55
2022-09-14T21:40:00.867Z,13.52
2022-09-14T21:42:30.399Z,13.52
2022-09-14T21:45:00.667Z,13.55
2022-09-14T21:47:29.690Z,13.54
2022-09-14T21:49:57.970Z,13.51
2022-09-14T21:52:26.112Z,13.51
2022-09-14T21:54:54.517Z,13.48
2022-09-14T21:57:22.670Z,13.45
2022-09-14T21:59:51.005Z,13.45
2022-09-14T22:02:21.698Z,13.42
2022-09-14T22:04:52.111Z,13.37
2022-09-14T22:07:20.532Z,13.37
2022-09-14T22:09:48.730Z,13.34
2022-09-14T22:12:18.202Z,13.32
2022-09-14T22:14:46.493Z,13.30
2022-09-14T22:17:14.791Z,13.28
2022-09-14T22:19:45.122Z,13.28
2022-09-14T22:22:13.445Z,13.26
2022-09-14T22:24:42.699Z,13.23
2022-09-14T22:27:11.653Z,13.23
2022-09-14T22:29:41.028Z,13.21
2022-09-14T22:32:11.878Z,13.21
2022-09-14T22:34:40.850Z,13.17
2022-09-14T22:37:10.299Z,13.16
2022-09-14T22:39:39.010Z,13.11
2022-09-14T22:42:08.196Z,13.13
2022-09-14T22:44:36.965Z,13.06
2022-09-14T22:47:06.716Z,13.06
2022-09-14T22:49:35.111Z,13.06
2022-09-14T22:52:03.692Z,13.04
2022-09-14T22:54:33.336Z,13.04
2022-09-14T22:57:01.922Z,13.01
2022-09-14T22:59:30.244Z,13.00
2022-09-14T23:01:59.325Z,12.99
2022-09-14T23:04:28.214Z,12.94
2022-09-14T23:06:56.504Z,12.91
2022-09-14T23:09:24.653Z,12.94
2022-09-14T23:11:55.455Z,12.93
2022-09-14T23:14:24.139Z,12.86
2022-09-14T23:16:52.618Z,12.86
2022-09-14T23:19:20.970Z,12.82
2022-09-14T23:21:49.592Z,12.77
2022-09-14T23:24:17.992Z,12.77
2022-09-14T23:26:46.524Z,12.79
2022-09-14T23:29:19.844Z,12.77
2022-09-14T23:31:48.970Z,12.76
2022-09-14T23:34:18.864Z,12.80
2022-09-14T23:36:47.047Z,12.80
2022-09-14T23:39:15.260Z,12.76
2022-09-14T23:41:43.825Z,12.76
2022-09-14T23:44:13.890Z,12.77
2022-09-14T23:46:43.782Z,12.72
2022-09-14T23:49:12.663Z,12.72
2022-09-14T23:51:41.290Z,12.69
2022-09-14T23:54:09.741Z,12.65
2022-09-14T23:56:38.788Z,12.65
2022-09-14T23:59:10.395Z,12.63
